| time (UTC) | temp F | wind direction | speed MPH | gust MPH | rain 1hr in | rain 24hr in | rain mn in | humidity % | barometer mb |
| 20260504185043 | 73 | 143 | 3.0 | 13.0 | 0.00 | 0.00 | 0.00 | 37 | 1011.1 |
| 20260504184555 | 73 | 265 | 2.0 | 13.0 | 0.00 | 0.00 | 0.00 | 38 | 1011.2 |
| 20260504184046 | 72 | 265 | 4.0 | 13.0 | 0.00 | 0.00 | 0.00 | 33 | 1011.3 |
| 20260504183543 | 72 | 252 | 5.0 | 14.0 | 0.00 | 0.00 | 0.00 | 37 | 1011.2 |
| 20260504183105 | 72 | 263 | 6.0 | 14.0 | 0.00 | 0.00 | 0.00 | 34 | 1011.3 |
| 20260504182544 | 72 | 20 | 6.0 | 14.0 | 0.00 | 0.00 | 0.00 | 35 | 1011.6 |
| 20260504182045 | 72 | 258 | 8.0 | 14.0 | 0.00 | 0.00 | 0.00 | 34 | 1011.7 |
| 20260504181602 | 72 | 232 | 5.0 | 12.0 | 0.00 | 0.00 | 0.00 | 40 | 1011.7 |
| 20260504181043 | 72 | 311 | 3.0 | 14.0 | 0.00 | 0.00 | 0.00 | 36 | 1011.7 |
| 20260504180543 | 72 | 170 | 5.0 | 14.0 | 0.00 | 0.00 | 0.00 | 40 | 1011.8 |
| 20260504180054 | 71 | 240 | 3.0 | 14.0 | 0.00 | 0.00 | 0.00 | 38 | 1011.7 |
| 20260504175547 | 71 | 227 | 1.0 | 9.0 | 0.00 | 0.00 | 0.00 | 43 | 1011.7 |
| 20260504175043 | 70 | 266 | 2.0 | 9.0 | 0.00 | 0.00 | 0.00 | 35 | 1011.7 |
| 20260504174552 | 70 | 238 | 3.0 | 10.0 | 0.00 | 0.00 | 0.00 | 41 | 1011.8 |
| 20260504174043 | 71 | 232 | 3.0 | 11.0 | 0.00 | 0.00 | 0.00 | 43 | 1011.9 |
| 20260504173544 | 71 | 301 | 4.0 | 11.0 | 0.00 | 0.00 | 0.00 | 41 | 1012.0 |
| 20260504173052 | 71 | 253 | 4.0 | 12.0 | 0.00 | 0.00 | 0.00 | 41 | 1012.1 |
| 20260504172543 | 70 | 309 | 3.0 | 12.0 | 0.00 | 0.00 | 0.00 | 38 | 1012.2 |
| 20260504172048 | 70 | 291 | 4.0 | 12.0 | 0.00 | 0.00 | 0.00 | 38 | 1012.1 |
| 20260504171556 | 71 | 282 | 1.0 | 13.0 | 0.00 | 0.00 | 0.00 | 40 | 1012.2 |
| 20260504171048 | 71 | 183 | 3.0 | 15.0 | 0.00 | 0.00 | 0.00 | 40 | 1012.4 |
| 20260504170547 | 70 | 301 | 5.0 | 15.0 | 0.00 | 0.00 | 0.00 | 37 | 1012.5 |
| 20260504151048 | 67 | 261 | 1.0 | 11.0 | 0.00 | 0.00 | 0.00 | 43 | 1013.5 |
| 20260504150548 | 66 | 357 | 3.0 | 11.0 | 0.00 | 0.00 | 0.00 | 44 | 1013.7 |
| 20260504141043 | 62 | 320 | 4.0 | 10.0 | 0.00 | 0.00 | 0.00 | 52 | 1013.9 |
| 20260504140545 | 62 | 149 | 2.0 | 11.0 | 0.00 | 0.00 | 0.00 | 51 | 1013.8 |
| 20260504130544 | 59 | 0 | 4.0 | 13.0 | 0.00 | 0.00 | 0.00 | 59 | 1014.0 |
| 20260504110543 | 44 | 0 | 0.0 | 2.0 | 0.00 | 0.00 | 0.00 | 91 | 1014.5 |
| 20260504100543 | 39 | 0 | 0.0 | 0.0 | 0.00 | 0.00 | 0.00 | 91 | 1014.6 |
| 20260504100103 | 38 | 0 | 0.0 | 0.0 | 0.00 | 0.00 | 0.00 | 91 | 1014.7 |
| 20260504081600 | 40 | 0 | 0.0 | 0.0 | 0.00 | 0.00 | 0.00 | 86 | 1015.0 |
| 20260504081042 | 40 | 0 | 0.0 | 0.0 | 0.00 | 0.00 | 0.00 | 86 | 1014.9 |
| 20260504080547 | 40 | 0 | 0.0 | 0.0 | 0.00 | 0.00 | 0.00 | 86 | 1014.8 |
| 20260504050546 | 41 | 0 | 0.0 | 0.0 | 0.00 | 0.00 | 0.00 | 79 | 1015.1 |
| 20260504050104 | 41 | 0 | 0.0 | 0.0 | 0.00 | 0.00 | 0.00 | 79 | 1014.9 |
| 20260504045546 | 41 | 0 | 0.0 | 0.0 | 0.00 | 0.00 | 0.00 | 79 | 1015.0 |
| 20260504045045 | 41 | 0 | 0.0 | 0.0 | 0.00 | 0.00 | 0.00 | 78 | 1015.0 |
| 20260504044601 | 41 | 0 | 0.0 | 0.0 | 0.00 | 0.00 | 0.00 | 79 | 1015.0 |
| 20260504044047 | 40 | 0 | 0.0 | 0.0 | 0.00 | 0.00 | 0.00 | 79 | 1015.0 |
| 20260504043547 | 40 | 0 | 0.0 | 0.0 | 0.00 | 0.00 | 0.00 | 80 | 1014.9 |
| 20260504043053 | 40 | 0 | 0.0 | 0.0 | 0.00 | 0.00 | 0.00 | 80 | 1015.0 |
| 20260504042546 | 40 | 0 | 0.0 | 0.0 | 0.00 | 0.00 | 0.00 | 82 | 1014.9 |
| 20260504042044 | 40 | 0 | 0.0 | 3.0 | 0.00 | 0.00 | 0.00 | 82 | 1014.9 |
| 20260504041550 | 39 | 0 | 0.0 | 3.0 | 0.00 | 0.00 | 0.00 | 82 | 1014.9 |
| 20260504041049 | 40 | 0 | 0.0 | 3.0 | 0.00 | 0.00 | 0.00 | 81 | 1014.7 |
| 20260504040544 | 40 | 0 | 0.0 | 0.0 | 0.00 | 0.00 | 0.00 | 81 | 1014.7 |
| 20260504035548 | 40 | 0 | 0.0 | 0.0 | 0.00 | 0.00 | 0.00 | 78 | 1014.6 |
| 20260504035044 | 41 | 0 | 0.0 | 0.0 | 0.00 | 0.00 | 0.00 | 78 | 1014.6 |
| 20260504034550 | 41 | 0 | 0.0 | 0.0 | 0.00 | 0.00 | 0.00 | 78 | 1014.5 |
| 20260504034050 | 41 | 0 | 0.0 | 0.0 | 0.00 | 0.00 | 0.00 | 78 | 1014.5 |
| 20260504033543 | 41 | 0 | 0.0 | 0.0 | 0.00 | 0.00 | 0.00 | 77 | 1014.5 |
| 20260504033051 | 41 | 0 | 0.0 | 0.0 | 0.00 | 0.00 | 0.00 | 77 | 1014.5 |
| 20260504032547 | 41 | 0 | 0.0 | 0.0 | 0.00 | 0.00 | 0.00 | 77 | 1014.4 |
| 20260504032044 | 41 | 0 | 0.0 | 0.0 | 0.00 | 0.00 | 0.00 | 79 | 1014.5 |
| 20260504031550 | 41 | 0 | 0.0 | 0.0 | 0.00 | 0.00 | 0.00 | 79 | 1014.4 |
| 20260504031046 | 41 | 0 | 0.0 | 0.0 | 0.00 | 0.00 | 0.00 | 78 | 1014.4 |
| 20260504030545 | 41 | 0 | 0.0 | 0.0 | 0.00 | 0.00 | 0.00 | 77 | 1014.3 |
| 20260504030053 | 41 | 0 | 0.0 | 0.0 | 0.00 | 0.00 | 0.00 | 78 | 1014.2 |
| 20260504025544 | 41 | 0 | 0.0 | 0.0 | 0.00 | 0.00 | 0.00 | 78 | 1014.2 |
| 20260504025044 | 41 | 0 | 0.0 | 0.0 | 0.00 | 0.00 | 0.00 | 79 | 1014.2 |
| 20260504024604 | 41 | 0 | 0.0 | 0.0 | 0.00 | 0.00 | 0.00 | 79 | 1014.2 |
| 20260504024048 | 41 | 0 | 0.0 | 0.0 | 0.00 | 0.00 | 0.00 | 78 | 1014.3 |
| 20260504023543 | 42 | 0 | 0.0 | 0.0 | 0.00 | 0.00 | 0.00 | 77 | 1014.3 |
| 20260504023054 | 42 | 0 | 0.0 | 0.0 | 0.00 | 0.00 | 0.00 | 77 | 1014.3 |
| 20260504022543 | 42 | 0 | 0.0 | 1.0 | 0.00 | 0.00 | 0.00 | 78 | 1014.3 |
| 20260504022044 | 42 | 0 | 0.0 | 1.0 | 0.00 | 0.00 | 0.00 | 78 | 1014.3 |
| 20260504021552 | 42 | 0 | 0.0 | 1.0 | 0.00 | 0.00 | 0.00 | 77 | 1014.3 |
| 20260504021043 | 43 | 0 | 0.0 | 1.0 | 0.00 | 0.00 | 0.00 | 77 | 1014.2 |
| 20260504020548 | 42 | 0 | 0.0 | 0.0 | 0.00 | 0.00 | 0.00 | 75 | 1014.2 |
| 20260504020051 | 42 | 0 | 0.0 | 1.0 | 0.00 | 0.00 | 0.00 | 75 | 1014.3 |
| 20260504015545 | 43 | 0 | 0.0 | 1.0 | 0.00 | 0.00 | 0.00 | 75 | 1014.2 |
| 20260504015047 | 43 | 0 | 0.0 | 0.0 | 0.00 | 0.00 | 0.00 | 74 | 1014.2 |
| 20260504014603 | 43 | 0 | 0.0 | 0.0 | 0.00 | 0.00 | 0.00 | 74 | 1014.3 |
| 20260504014045 | 44 | 0 | 0.0 | 0.0 | 0.00 | 0.00 | 0.00 | 74 | 1014.3 |
| 20260504013543 | 44 | 0 | 0.0 | 0.0 | 0.00 | 0.00 | 0.00 | 75 | 1014.1 |
| 20260504013051 | 44 | 0 | 0.0 | 0.0 | 0.00 | 0.00 | 0.00 | 73 | 1014.1 |
| 20260504012546 | 44 | 0 | 0.0 | 0.0 | 0.00 | 0.00 | 0.00 | 71 | 1014.1 |
| 20260504012043 | 44 | 0 | 0.0 | 0.0 | 0.00 | 0.00 | 0.00 | 69 | 1014.0 |
| 20260504011551 | 45 | 0 | 0.0 | 0.0 | 0.00 | 0.00 | 0.00 | 68 | 1014.0 |
| 20260504011042 | 45 | 0 | 0.0 | 0.0 | 0.00 | 0.00 | 0.00 | 67 | 1013.9 |
| 20260504010541 | 46 | 0 | 0.0 | 0.0 | 0.00 | 0.00 | 0.00 | 67 | 1013.8 |
| 20260504010055 | 46 | 0 | 0.0 | 1.0 | 0.00 | 0.00 | 0.00 | 66 | 1013.8 |
| 20260504005542 | 46 | 0 | 0.0 | 1.0 | 0.00 | 0.00 | 0.00 | 68 | 1013.8 |
| 20260504005044 | 47 | 0 | 0.0 | 0.0 | 0.00 | 0.00 | 0.00 | 67 | 1013.8 |
| 20260504004554 | 47 | 0 | 0.0 | 0.0 | 0.00 | 0.00 | 0.00 | 64 | 1013.8 |
| 20260504004044 | 47 | 0 | 0.0 | 0.0 | 0.00 | 0.00 | 0.00 | 64 | 1013.7 |
| 20260504003542 | 48 | 0 | 0.0 | 0.0 | 0.00 | 0.00 | 0.00 | 61 | 1013.5 |
| 20260504003057 | 48 | 0 | 0.0 | 0.0 | 0.00 | 0.00 | 0.00 | 61 | 1013.5 |
| 20260504002543 | 49 | 0 | 0.0 | 0.0 | 0.00 | 0.00 | 0.00 | 59 | 1013.4 |
| 20260504002041 | 50 | 0 | 0.0 | 0.0 | 0.00 | 0.00 | 0.00 | 58 | 1013.4 |
| 20260504001551 | 50 | 0 | 0.0 | 0.0 | 0.00 | 0.00 | 0.00 | 55 | 1013.2 |
| 20260504001043 | 51 | 0 | 0.0 | 0.0 | 0.00 | 0.00 | 0.00 | 51 | 1013.2 |
| 20260504000543 | 52 | 0 | 0.0 | 0.0 | 0.00 | 0.00 | 0.00 | 49 | 1013.0 |
| 20260504000134 | 52 | 0 | 0.0 | 1.0 | 0.00 | 0.00 | 0.00 | 48 | 1012.9 |
| 20260503235543 | 53 | 0 | 0.0 | 2.0 | 0.00 | 0.00 | 0.00 | 46 | 1012.8 |
| 20260503235043 | 53 | 0 | 0.0 | 2.0 | 0.00 | 0.00 | 0.00 | 45 | 1012.7 |
| 20260503234558 | 54 | 291 | 0.0 | 5.0 | 0.00 | 0.00 | 0.00 | 44 | 1012.7 |
| 20260503234047 | 55 | 0 | 0.0 | 5.0 | 0.00 | 0.00 | 0.00 | 45 | 1012.8 |
| 20260503233541 | 55 | 0 | 1.0 | 5.0 | 0.00 | 0.00 | 0.00 | 44 | 1012.8 |
| 20260503233053 | 56 | 0 | 1.0 | 4.0 | 0.00 | 0.00 | 0.00 | 41 | 1012.8 |
| 20260503232543 | 57 | 0 | 0.0 | 5.0 | 0.00 | 0.00 | 0.00 | 41 | 1012.8 |
| 20260503232043 | 57 | 0 | 0.0 | 8.0 | 0.00 | 0.00 | 0.00 | 37 | 1012.9 |
| 20260503231552 | 58 | 0 | 2.0 | 8.0 | 0.00 | 0.00 | 0.00 | 37 | 1012.9 |
| 20260503231044 | 58 | 257 | 3.0 | 10.0 | 0.00 | 0.00 | 0.00 | 36 | 1012.9 |
| 20260503230544 | 59 | 274 | 3.0 | 10.0 | 0.00 | 0.00 | 0.00 | 35 | 1012.9 |
| 20260503230051 | 59 | 301 | 3.0 | 10.0 | 0.00 | 0.00 | 0.00 | 36 | 1012.8 |
| 20260503225547 | 60 | 291 | 5.0 | 10.0 | 0.00 | 0.00 | 0.00 | 34 | 1012.8 |
| 20260503225043 | 60 | 0 | 3.0 | 10.0 | 0.00 | 0.00 | 0.00 | 36 | 1012.8 |
| 20260503224550 | 60 | 332 | 2.0 | 10.0 | 0.00 | 0.00 | 0.00 | 35 | 1012.7 |
| 20260503224041 | 60 | 287 | 5.0 | 10.0 | 0.00 | 0.00 | 0.00 | 36 | 1012.7 |
| 20260503223542 | 60 | 309 | 4.0 | 13.0 | 0.00 | 0.00 | 0.00 | 34 | 1012.7 |
| 20260503223050 | 60 | 287 | 5.0 | 13.0 | 0.00 | 0.00 | 0.00 | 36 | 1012.8 |
| 20260503222543 | 61 | 342 | 6.0 | 13.0 | 0.00 | 0.00 | 0.00 | 33 | 1012.8 |
| 20260503222048 | 61 | 255 | 3.0 | 12.0 | 0.00 | 0.00 | 0.00 | 33 | 1012.9 |
| 20260503221556 | 61 | 291 | 5.0 | 16.0 | 0.00 | 0.00 | 0.00 | 32 | 1012.9 |
| 20260503221044 | 61 | 310 | 6.0 | 16.0 | 0.00 | 0.00 | 0.00 | 33 | 1013.0 |
| 20260503220544 | 61 | 272 | 7.0 | 19.0 | 0.00 | 0.00 | 0.00 | 32 | 1012.9 |
| 20260503220055 | 61 | 296 | 10.0 | 21.0 | 0.00 | 0.00 | 0.00 | 31 | 1013.0 |
| 20260503215548 | 61 | 318 | 7.0 | 21.0 | 0.00 | 0.00 | 0.00 | 34 | 1013.0 |
| 20260503215047 | 61 | 320 | 9.0 | 21.0 | 0.00 | 0.00 | 0.00 | 33 | 1012.9 |
| 20260503214554 | 61 | 268 | 10.0 | 21.0 | 0.00 | 0.00 | 0.00 | 37 | 1013.0 |
| 20260503214048 | 61 | 3 | 8.0 | 17.0 | 0.00 | 0.00 | 0.00 | 32 | 1012.8 |
| 20260503213547 | 61 | 277 | 8.0 | 17.0 | 0.00 | 0.00 | 0.00 | 34 | 1012.9 |
| 20260503213057 | 61 | 301 | 9.0 | 16.0 | 0.00 | 0.00 | 0.00 | 35 | 1012.9 |
| 20260503212548 | 62 | 282 | 8.0 | 15.0 | 0.00 | 0.00 | 0.00 | 36 | 1012.9 |
| 20260503212048 | 62 | 305 | 6.0 | 20.0 | 0.00 | 0.00 | 0.00 | 35 | 1012.8 |
| 20260503211611 | 62 | 247 | 4.0 | 20.0 | 0.00 | 0.00 | 0.00 | 37 | 1012.8 |
| 20260503211045 | 62 | 313 | 6.0 | 17.0 | 0.00 | 0.00 | 0.00 | 39 | 1012.8 |
| 20260503210549 | 62 | 296 | 6.0 | 17.0 | 0.00 | 0.00 | 0.00 | 34 | 1012.9 |
| 20260503210053 | 62 | 301 | 6.0 | 17.0 | 0.00 | 0.00 | 0.00 | 32 | 1012.8 |
| 20260503205549 | 62 | 301 | 7.0 | 16.0 | 0.00 | 0.00 | 0.00 | 35 | 1012.9 |
| 20260503205047 | 62 | 280 | 6.0 | 20.0 | 0.00 | 0.00 | 0.00 | 43 | 1012.9 |
| 20260503204557 | 62 | 267 | 11.0 | 20.0 | 0.00 | 0.00 | 0.00 | 37 | 1012.9 |
| 20260503204048 | 61 | 306 | 8.0 | 16.0 | 0.00 | 0.00 | 0.00 | 38 | 1013.0 |
| 20260503203546 | 61 | 261 | 9.0 | 14.0 | 0.00 | 0.00 | 0.00 | 38 | 1012.9 |
| 20260503203105 | 60 | 263 | 7.0 | 15.0 | 0.00 | 0.00 | 0.00 | 38 | 1013.0 |
| 20260503202548 | 60 | 254 | 7.0 | 16.0 | 0.00 | 0.00 | 0.00 | 39 | 1013.0 |
| 20260503202050 | 60 | 253 | 8.0 | 16.0 | 0.00 | 0.00 | 0.00 | 38 | 1013.0 |
| 20260503201555 | 62 | 319 | 5.0 | 17.0 | 0.00 | 0.00 | 0.00 | 38 | 1013.1 |
| 20260503201046 | 61 | 307 | 8.0 | 17.0 | 0.00 | 0.00 | 0.00 | 35 | 1013.1 |
| 20260503200542 | 61 | 319 | 6.0 | 19.0 | 0.00 | 0.00 | 0.00 | 35 | 1013.1 |
| 20260503200055 | 59 | 264 | 6.0 | 19.0 | 0.00 | 0.00 | 0.00 | 35 | 1013.3 |
| 20260503195547 | 60 | 269 | 11.0 | 19.0 | 0.00 | 0.00 | 0.00 | 37 | 1013.2 |
| 20260503195047 | 61 | 332 | 10.0 | 19.0 | 0.00 | 0.00 | 0.00 | 35 | 1013.2 |
| 20260503194557 | 61 | 333 | 9.0 | 22.0 | 0.00 | 0.00 | 0.00 | 34 | 1013.3 |
| 20260503194048 | 60 | 280 | 8.0 | 22.0 | 0.00 | 0.00 | 0.00 | 38 | 1013.4 |
| 20260503193547 | 59 | 301 | 12.0 | 22.0 | 0.00 | 0.00 | 0.00 | 37 | 1013.2 |
| 20260503193057 | 61 | 291 | 8.0 | 20.0 | 0.00 | 0.00 | 0.00 | 40 | 1013.3 |
| 20260503192545 | 60 | 291 | 11.0 | 20.0 | 0.00 | 0.00 | 0.00 | 34 | 1013.3 |
| 20260503192047 | 60 | 345 | 6.0 | 14.0 | 0.00 | 0.00 | 0.00 | 40 | 1013.4 |
| 20260503191604 | 61 | 353 | 7.0 | 13.0 | 0.00 | 0.00 | 0.00 | 37 | 1013.5 |
| 20260503191050 | 61 | 296 | 2.0 | 15.0 | 0.00 | 0.00 | 0.00 | 44 | 1013.5 |
| 20260503190545 | 59 | 301 | 5.0 | 19.0 | 0.00 | 0.00 | 0.00 | 42 | 1013.5 |
| 20260503190110 | 58 | 326 | 8.0 | 22.0 | 0.00 | 0.00 | 0.00 | 38 | 1013.6 |
| 20260503185542 | 60 | 259 | 10.0 | 22.0 | 0.00 | 0.00 | 0.00 | 40 | 1013.6 |